Time;durP1;ratioP1;P1;durP2;ratioP2;P2;SDS_P1;SDS_P2;PMS_P1;PMS_P2;Temp;Humidity;BMP_temperature;BMP_pressure;BME280_temperature;BME280_humidity;BME280_pressure;Samples;Min_cycle;Max_cycle;Signal;HPM_P1;HPM_P2
2022/12/03 00:00:26;;;;;;;26.15;13.45;;;0.60;99.90;;;;;;5069908;28;20036;-86
2022/12/03 00:02:52;;;;;;;27.17;14.25;;;0.60;99.90;;;;;;5062805;28;20041;-86
2022/12/03 00:05:18;;;;;;;28.70;14.07;;;0.60;99.90;;;;;;5033779;28;20041;-86
2022/12/03 00:07:44;;;;;;;27.65;14.13;;;0.60;99.90;;;;;;5050028;28;20029;-86
2022/12/03 00:10:11;;;;;;;29.30;13.93;;;0.60;99.90;;;;;;5049974;28;20075;-86
2022/12/03 00:12:36;;;;;;;29.05;14.10;;;0.60;99.90;;;;;;5054236;28;20040;-86
2022/12/03 00:15:04;;;;;;;29.48;14.48;;;0.60;99.90;;;;;;5052068;28;20035;-85
2022/12/03 00:17:31;;;;;;;27.52;12.82;;;0.60;99.90;;;;;;5053709;28;20028;-87
2022/12/03 00:19:57;;;;;;;29.42;14.80;;;0.60;99.90;;;;;;5066891;28;20112;-86
2022/12/03 00:22:22;;;;;;;29.73;13.85;;;0.60;99.90;;;;;;5035040;28;20021;-86
2022/12/03 00:24:48;;;;;;;25.75;13.77;;;0.60;99.90;;;;;;5053111;28;20042;-86
2022/12/03 00:27:14;;;;;;;28.50;13.80;;;0.60;99.90;;;;;;5051009;28;20052;-86
2022/12/03 00:29:40;;;;;;;26.65;12.98;;;0.60;99.90;;;;;;5049865;28;20115;-87
2022/12/03 00:32:06;;;;;;;27.10;14.02;;;0.60;99.90;;;;;;5020110;28;20035;-87
2022/12/03 00:34:31;;;;;;;27.30;13.52;;;0.60;99.90;;;;;;5049061;28;20044;-86
2022/12/03 00:36:57;;;;;;;30.25;14.02;;;0.60;99.90;;;;;;5052764;28;20043;-87
2022/12/03 00:39:23;;;;;;;30.60;14.68;;;0.60;99.90;;;;;;5050670;28;20161;-86
2022/12/03 00:41:49;;;;;;;29.50;13.98;;;0.60;99.90;;;;;;5052225;28;20163;-86
2022/12/03 00:44:15;;;;;;;30.45;14.50;;;0.60;99.90;;;;;;5038150;28;20437;-86
2022/12/03 00:46:40;;;;;;;29.40;13.50;;;0.60;99.90;;;;;;5052624;28;20062;-87
2022/12/03 00:49:06;;;;;;;29.02;13.82;;;0.60;99.90;;;;;;5053273;28;20126;-86
2022/12/03 00:51:34;;;;;;;24.73;12.98;;;0.60;99.90;;;;;;5041516;28;20029;-86
2022/12/03 00:54:00;;;;;;;31.15;14.07;;;0.60;99.90;;;;;;5016340;28;20033;-86
2022/12/03 00:56:26;;;;;;;26.80;13.90;;;0.60;99.90;;;;;;5043319;28;20082;-86
2022/12/03 00:58:52;;;;;;;29.10;14.00;;;0.60;99.90;;;;;;5049517;28;20037;-87
2022/12/03 01:01:18;;;;;;;24.27;13.18;;;0.60;99.90;;;;;;5049427;28;20043;-87
2022/12/03 01:03:43;;;;;;;29.05;14.05;;;0.60;99.90;;;;;;5052520;28;20036;-86
2022/12/03 01:06:09;;;;;;;30.98;13.95;;;0.60;99.90;;;;;;5048639;28;20124;-87
2022/12/03 01:08:35;;;;;;;28.92;14.52;;;0.60;99.90;;;;;;5017284;28;20036;-86
2022/12/03 01:11:01;;;;;;;28.05;13.13;;;0.60;99.90;;;;;;5067853;28;20031;-86
2022/12/03 01:13:27;;;;;;;25.80;12.82;;;0.60;99.90;;;;;;5065971;28;20489;-86
2022/12/03 01:15:53;;;;;;;27.48;13.23;;;0.60;99.90;;;;;;5047020;28;20036;-87
2022/12/03 01:18:19;;;;;;;28.73;13.95;;;0.60;99.90;;;;;;5049709;28;20039;-86
2022/12/03 01:20:44;;;;;;;28.80;13.52;;;0.60;99.90;;;;;;5065738;28;20032;-87
2022/12/03 01:23:12;;;;;;;30.58;14.02;;;0.60;99.90;;;;;;5052266;28;20020;-87
2022/12/03 01:25:38;;;;;;;26.73;13.00;;;0.60;99.90;;;;;;5068670;28;20025;-86
2022/12/03 01:28:04;;;;;;;28.25;13.45;;;0.60;99.90;;;;;;5044647;28;20029;-87
2022/12/03 01:32:15;;;;;;;28.20;13.38;;;0.60;99.90;;;;;;5035298;28;20040;-86
2022/12/03 01:33:15;;;;;;;26.98;13.38;;;0.60;99.90;;;;;;5068848;28;20485;-85
2022/12/03 01:35:41;;;;;;;30.48;13.65;;;0.60;99.90;;;;;;5048424;28;20031;-86
2022/12/03 01:38:07;;;;;;;28.67;13.88;;;0.60;99.90;;;;;;5052489;28;20029;-86
2022/12/03 01:40:33;;;;;;;30.48;14.00;;;0.60;99.90;;;;;;5052095;28;20033;-86
2022/12/03 01:42:59;;;;;;;28.35;12.50;;;0.60;99.90;;;;;;5052089;28;20032;-86
2022/12/03 01:45:24;;;;;;;24.15;12.32;;;0.60;99.90;;;;;;5050605;28;20087;-86
2022/12/03 01:47:50;;;;;;;27.63;13.52;;;0.60;99.90;;;;;;5052625;28;20078;-86
2022/12/03 01:50:29;;;;;;;25.20;12.63;;;0.60;99.90;;;;;;5052210;28;20495;-86
2022/12/03 01:52:58;;;;;;;26.63;13.43;;;0.60;99.90;;;;;;5052154;28;20653;-86
2022/12/03 01:55:25;;;;;;;27.35;13.63;;;0.70;99.90;;;;;;5051765;28;20040;-87
2022/12/03 01:57:54;;;;;;;24.92;12.82;;;0.60;99.90;;;;;;5051691;28;20064;-86
2022/12/03 02:00:26;;;;;;;26.02;13.52;;;0.60;99.90;;;;;;5049235;28;20031;-87
2022/12/03 02:02:59;;;;;;;29.05;13.27;;;0.60;99.90;;;;;;5063709;28;20025;-87
2022/12/03 02:05:31;;;;;;;25.58;12.68;;;0.60;99.90;;;;;;5065550;28;20036;-87
2022/12/03 02:07:58;;;;;;;27.80;13.60;;;0.60;99.90;;;;;;5042323;28;20029;-87
2022/12/03 02:10:33;;;;;;;26.83;13.18;;;0.60;99.90;;;;;;5037160;28;20033;-87
2022/12/03 02:13:03;;;;;;;28.13;13.40;;;0.60;99.90;;;;;;5054932;28;20397;-87
2022/12/03 02:15:29;;;;;;;23.50;12.40;;;0.60;99.90;;;;;;5064690;28;20028;-87
2022/12/03 02:17:56;;;;;;;28.90;12.77;;;0.60;99.90;;;;;;5055008;28;20037;-87
2022/12/03 02:20:22;;;;;;;25.27;12.50;;;0.60;99.90;;;;;;5055235;28;20127;-87
2022/12/03 02:23:01;;;;;;;23.95;12.02;;;0.60;99.90;;;;;;5054096;28;20032;-86
2022/12/03 02:25:30;;;;;;;25.23;12.82;;;0.60;99.90;;;;;;5055212;28;20037;-86
2022/12/03 02:27:58;;;;;;;23.08;12.13;;;0.60;99.90;;;;;;5069006;28;20032;-87
2022/12/03 02:30:26;;;;;;;29.65;13.13;;;0.60;99.90;;;;;;5054297;28;20025;-87
2022/12/03 02:32:53;;;;;;;25.55;13.27;;;0.60;99.90;;;;;;5055313;28;20063;-87
2022/12/03 02:35:21;;;;;;;29.55;13.32;;;0.60;99.90;;;;;;5071869;28;20033;-86
2022/12/03 02:37:51;;;;;;;23.70;12.00;;;0.60;99.90;;;;;;5055924;28;20116;-86
2022/12/03 02:40:20;;;;;;;27.90;13.60;;;0.60;99.90;;;;;;5054990;28;20037;-86
2022/12/03 02:42:46;;;;;;;27.60;12.82;;;0.60;99.90;;;;;;5055185;28;20435;-86
2022/12/03 02:45:20;;;;;;;24.88;12.05;;;0.60;99.90;;;;;;5053310;28;20077;-87
2022/12/03 02:47:52;;;;;;;24.80;12.35;;;0.60;99.90;;;;;;5072373;28;20062;-87
2022/12/03 02:50:23;;;;;;;27.90;13.25;;;0.60;99.90;;;;;;5053860;28;20071;-87
2022/12/03 02:52:52;;;;;;;27.42;12.95;;;0.60;99.90;;;;;;5049942;28;20024;-86
2022/12/03 02:55:18;;;;;;;23.98;12.10;;;0.60;99.90;;;;;;5051421;28;20444;-87
2022/12/03 02:57:46;;;;;;;23.10;12.20;;;0.60;99.90;;;;;;5054165;28;20059;-87
2022/12/03 03:00:14;;;;;;;26.17;12.20;;;0.60;99.90;;;;;;5054503;28;20020;-86
2022/12/03 03:02:41;;;;;;;28.30;12.43;;;0.60;99.90;;;;;;5071320;28;20033;-86
2022/12/03 03:05:10;;;;;;;26.15;12.68;;;0.60;99.90;;;;;;5070641;28;20043;-87
2022/12/03 03:07:38;;;;;;;26.40;13.02;;;0.60;99.90;;;;;;5065821;28;20044;-87
2022/12/03 03:10:06;;;;;;;23.55;11.95;;;0.60;99.90;;;;;;5055220;28;20462;-86
2022/12/03 03:12:32;;;;;;;24.38;12.32;;;0.60;99.90;;;;;;5050979;28;20421;-86
2022/12/03 03:14:58;;;;;;;27.27;12.43;;;0.60;99.90;;;;;;5059137;28;20027;-86
2022/12/03 03:17:24;;;;;;;26.92;13.00;;;0.70;99.90;;;;;;5071007;28;20123;-86
2022/12/03 03:19:50;;;;;;;25.23;12.48;;;0.60;99.90;;;;;;5045298;28;20551;-86
2022/12/03 03:22:16;;;;;;;25.30;12.98;;;0.60;99.90;;;;;;5034643;28;20532;-86
2022/12/03 03:24:42;;;;;;;28.50;13.77;;;0.60;99.90;;;;;;5054382;28;20037;-87
2022/12/03 03:27:08;;;;;;;27.60;13.48;;;0.60;99.90;;;;;;5038067;28;20074;-87
2022/12/03 03:29:36;;;;;;;23.25;11.93;;;0.60;99.90;;;;;;5065153;28;20082;-86
2022/12/03 03:32:03;;;;;;;26.13;13.43;;;0.60;99.90;;;;;;5033185;28;20032;-87
2022/12/03 03:34:31;;;;;;;24.42;13.00;;;0.60;99.90;;;;;;5054562;28;20029;-86
2022/12/03 03:36:57;;;;;;;26.13;13.80;;;0.60;99.90;;;;;;5070621;28;20435;-86
2022/12/03 03:39:24;;;;;;;26.67;13.13;;;0.60;99.90;;;;;;5054680;28;20082;-86
2022/12/03 03:41:50;;;;;;;26.15;12.73;;;0.60;99.90;;;;;;5046256;28;20029;-86
2022/12/03 03:44:15;;;;;;;25.38;12.23;;;0.60;99.90;;;;;;5053810;28;20059;-86
2022/12/03 03:46:42;;;;;;;26.35;12.82;;;0.60;99.90;;;;;;5051712;28;20033;-87
2022/12/03 03:49:09;;;;;;;26.67;13.45;;;0.60;99.90;;;;;;5071009;28;20028;-86
2022/12/03 03:51:35;;;;;;;27.17;13.70;;;0.60;99.90;;;;;;5049905;28;20040;-86
2022/12/03 03:54:03;;;;;;;26.15;12.65;;;0.60;99.90;;;;;;5056136;28;20535;-87
2022/12/03 03:56:29;;;;;;;23.90;11.52;;;0.60;99.90;;;;;;5069902;28;20033;-86
2022/12/03 03:58:55;;;;;;;26.60;12.88;;;0.60;99.90;;;;;;5042240;28;20033;-86
2022/12/03 04:01:22;;;;;;;24.73;12.95;;;0.70;99.90;;;;;;5064159;28;20119;-86
2022/12/03 04:03:48;;;;;;;29.13;13.55;;;0.70;99.90;;;;;;5050435;28;20063;-86
2022/12/03 04:06:14;;;;;;;28.15;13.60;;;0.60;99.90;;;;;;5059267;28;20378;-86
2022/12/03 04:08:40;;;;;;;27.58;14.77;;;0.60;99.90;;;;;;5053973;28;20696;-86
2022/12/03 04:13:52;;;;;;;28.70;12.80;;;0.60;99.90;;;;;;5069127;28;20032;-86
2022/12/03 04:16:18;;;;;;;26.90;12.68;;;0.60;99.90;;;;;;5053007;28;20036;-86
2022/12/03 04:18:46;;;;;;;32.90;13.93;;;0.60;99.90;;;;;;5035217;28;20036;-86
2022/12/03 04:23:59;;;;;;;25.75;12.48;;;0.60;99.90;;;;;;5081278;28;20024;-86
2022/12/03 04:29:11;;;;;;;27.15;12.68;;;0.60;99.90;;;;;;5056297;28;20021;-86
2022/12/03 04:37:07;;;;;;;26.00;13.00;;;0.60;99.90;;;;;;5057116;28;20032;-86
2022/12/03 04:39:33;;;;;;;27.05;13.85;;;0.60;99.90;;;;;;5050309;28;20930;-87
2022/12/03 04:41:59;;;;;;;26.13;13.43;;;0.60;99.90;;;;;;5048106;28;20043;-87
2022/12/03 04:44:37;;;;;;;27.27;13.63;;;0.60;99.90;;;;;;5050287;28;20036;-87
2022/12/03 04:47:05;;;;;;;28.50;13.50;;;0.60;99.90;;;;;;5049512;28;20032;-86
2022/12/03 04:49:32;;;;;;;25.75;12.57;;;0.60;99.90;;;;;;5049083;28;20036;-86
2022/12/03 04:51:58;;;;;;;26.75;12.75;;;0.60;99.90;;;;;;5069826;28;20048;-87
2022/12/03 04:54:24;;;;;;;27.98;13.70;;;0.60;99.90;;;;;;5053076;28;20029;-86
2022/12/03 04:56:50;;;;;;;23.23;12.48;;;0.60;99.90;;;;;;5039262;28;20095;-86
2022/12/03 04:59:16;;;;;;;26.60;13.82;;;0.60;99.90;;;;;;5051123;28;20425;-86
2022/12/03 05:01:42;;;;;;;27.58;13.20;;;0.60;99.90;;;;;;5046756;28;20090;-87
2022/12/03 05:04:09;;;;;;;27.70;12.35;;;0.60;99.90;;;;;;5052600;28;20045;-86
2022/12/03 05:06:35;;;;;;;24.25;12.02;;;0.60;99.90;;;;;;5032984;28;20033;-87
2022/12/03 05:09:00;;;;;;;25.20;12.60;;;0.60;99.90;;;;;;5051111;28;20801;-87
2022/12/03 05:11:26;;;;;;;22.42;12.50;;;0.70;99.90;;;;;;5049097;28;20033;-87
2022/12/03 05:13:52;;;;;;;23.67;12.60;;;0.60;99.90;;;;;;5046637;28;20175;-86
2022/12/03 05:16:18;;;;;;;27.10;13.07;;;0.70;99.90;;;;;;5042206;28;20037;-86
2022/12/03 05:18:44;;;;;;;24.20;13.23;;;0.70;99.90;;;;;;5049977;28;20036;-87
2022/12/03 05:21:10;;;;;;;27.90;13.52;;;0.60;99.90;;;;;;5057452;28;20032;-87
2022/12/03 05:23:36;;;;;;;26.35;12.35;;;0.70;99.90;;;;;;5069508;28;20420;-87
2022/12/03 05:26:01;;;;;;;27.67;13.07;;;0.70;99.90;;;;;;5052639;28;20532;-87
2022/12/03 05:28:27;;;;;;;25.35;12.25;;;0.60;99.90;;;;;;5052577;28;20033;-87
2022/12/03 05:30:53;;;;;;;24.05;12.02;;;0.70;99.90;;;;;;5049172;28;20036;-86
2022/12/03 05:33:20;;;;;;;29.02;12.70;;;0.60;99.90;;;;;;5064706;28;20050;-87
2022/12/03 05:35:46;;;;;;;23.05;12.77;;;0.70;99.90;;;;;;5049087;28;20108;-87
2022/12/03 05:38:12;;;;;;;27.02;13.38;;;0.70;99.90;;;;;;5056757;28;20033;-86
2022/12/03 05:40:38;;;;;;;25.60;12.32;;;0.70;99.90;;;;;;5069035;28;20035;-86
2022/12/03 05:43:04;;;;;;;22.27;11.27;;;0.70;99.90;;;;;;5052456;28;20039;-87
2022/12/03 05:45:34;;;;;;;25.83;12.48;;;0.70;99.90;;;;;;5033065;28;20112;-86
2022/12/03 05:48:01;;;;;;;27.63;12.15;;;0.70;99.90;;;;;;5053982;28;20051;-87
2022/12/03 05:50:30;;;;;;;25.48;12.60;;;0.70;99.90;;;;;;5039558;28;20037;-86
2022/12/03 05:52:57;;;;;;;24.15;12.02;;;0.70;99.90;;;;;;5056225;28;20043;-87
2022/12/03 05:55:23;;;;;;;26.92;13.23;;;0.70;99.90;;;;;;5055659;28;20036;-85
2022/12/03 05:57:49;;;;;;;26.85;13.13;;;0.70;99.90;;;;;;5070507;28;20032;-87
2022/12/03 06:00:19;;;;;;;25.50;13.45;;;0.60;99.90;;;;;;5058361;28;20047;-86
2022/12/03 06:02:45;;;;;;;24.10;11.55;;;0.70;99.90;;;;;;5053429;28;20064;-87
2022/12/03 06:05:13;;;;;;;30.98;14.65;;;0.70;99.90;;;;;;5053303;28;20033;-86
2022/12/03 06:07:38;;;;;;;25.38;12.10;;;0.70;99.90;;;;;;5056699;28;20035;-86
2022/12/03 06:10:06;;;;;;;24.40;12.90;;;0.70;99.90;;;;;;5053188;28;20037;-87
2022/12/03 06:12:32;;;;;;;27.10;13.30;;;0.70;99.90;;;;;;5056341;28;20028;-87
2022/12/03 06:14:58;;;;;;;26.98;13.05;;;0.70;99.90;;;;;;5069662;28;20025;-86
2022/12/03 06:17:25;;;;;;;25.75;13.43;;;0.70;99.90;;;;;;5055374;28;20694;-86
2022/12/03 06:19:51;;;;;;;24.65;12.52;;;0.70;99.90;;;;;;5052918;28;20041;-86
2022/12/03 06:22:17;;;;;;;24.85;12.38;;;0.70;99.90;;;;;;5054120;28;20163;-87
2022/12/03 06:24:43;;;;;;;24.67;12.30;;;0.70;99.90;;;;;;5056930;28;20054;-86
2022/12/03 06:27:09;;;;;;;25.55;12.38;;;0.70;99.90;;;;;;5051941;28;20120;-87
2022/12/03 06:29:35;;;;;;;24.77;12.95;;;0.70;99.90;;;;;;5060393;28;20033;-87
2022/12/03 06:32:02;;;;;;;29.23;13.55;;;0.70;99.90;;;;;;5050826;28;20032;-87
2022/12/03 06:34:27;;;;;;;25.02;12.23;;;0.70;99.90;;;;;;5052850;28;20029;-85
2022/12/03 06:36:53;;;;;;;25.60;12.75;;;0.70;99.90;;;;;;5054725;28;20096;-86
2022/12/03 06:39:20;;;;;;;24.90;12.27;;;0.70;99.90;;;;;;5056694;28;20090;-87
2022/12/03 06:41:46;;;;;;;23.90;11.85;;;0.70;99.90;;;;;;5055816;28;20036;-87
2022/12/03 06:44:11;;;;;;;23.67;12.55;;;0.70;99.90;;;;;;5056090;28;20067;-86
2022/12/03 06:46:37;;;;;;;26.08;12.48;;;0.70;99.90;;;;;;5073545;28;20388;-87
2022/12/03 06:49:03;;;;;;;24.30;12.02;;;0.70;99.90;;;;;;5056060;28;20183;-86
2022/12/03 06:51:29;;;;;;;24.65;11.60;;;0.70;99.90;;;;;;5051608;28;20079;-87
2022/12/03 06:53:56;;;;;;;26.17;11.85;;;0.70;99.90;;;;;;5040948;28;20059;-87
2022/12/03 06:56:22;;;;;;;22.75;11.90;;;0.70;99.90;;;;;;5053258;28;20511;-87
2022/12/03 06:58:47;;;;;;;23.95;12.70;;;0.70;99.90;;;;;;5048220;28;20033;-87
2022/12/03 07:01:13;;;;;;;26.55;12.45;;;0.70;99.90;;;;;;5070550;28;20036;-87
2022/12/03 07:03:39;;;;;;;25.50;12.07;;;0.70;99.90;;;;;;5055236;28;20040;-87
2022/12/03 07:06:05;;;;;;;21.73;10.73;;;0.70;99.90;;;;;;5054200;28;20040;-87
2022/12/03 07:08:31;;;;;;;23.52;12.15;;;0.70;99.90;;;;;;5056218;28;20029;-87
2022/12/03 07:10:57;;;;;;;25.98;11.73;;;0.70;99.90;;;;;;5048839;28;20044;-86
2022/12/03 07:13:22;;;;;;;24.40;12.18;;;0.70;99.90;;;;;;5040861;28;20093;-87
2022/12/03 07:15:48;;;;;;;23.45;11.60;;;0.70;99.90;;;;;;5032294;28;20044;-87
2022/12/03 07:18:14;;;;;;;23.95;12.13;;;0.70;99.90;;;;;;5065221;28;20034;-87
2022/12/03 07:20:40;;;;;;;24.48;12.02;;;0.70;99.90;;;;;;5070316;28;20025;-87
2022/12/03 07:23:06;;;;;;;24.48;11.38;;;0.70;99.90;;;;;;5055492;28;20036;-87
2022/12/03 07:25:32;;;;;;;22.65;11.60;;;0.70;99.90;;;;;;5055115;28;20028;-87
2022/12/03 07:27:57;;;;;;;23.35;11.70;;;0.70;99.90;;;;;;5048271;28;20079;-87
2022/12/03 07:30:24;;;;;;;24.58;12.50;;;0.70;99.90;;;;;;5019308;28;20441;-87
2022/12/03 07:32:50;;;;;;;23.05;12.18;;;0.70;99.90;;;;;;5046812;28;20031;-87
2022/12/03 07:35:16;;;;;;;25.67;12.55;;;0.70;99.90;;;;;;5053586;28;20025;-87
2022/12/03 07:37:42;;;;;;;25.50;12.48;;;0.70;99.90;;;;;;5035783;28;20033;-87
2022/12/03 07:40:08;;;;;;;25.05;12.27;;;0.70;99.90;;;;;;5047684;28;20124;-87
2022/12/03 07:42:35;;;;;;;22.67;11.93;;;0.70;99.90;;;;;;5050541;28;20029;-87
2022/12/03 07:45:01;;;;;;;25.58;12.23;;;0.70;99.90;;;;;;5058436;28;20033;-87
2022/12/03 07:47:27;;;;;;;24.60;12.57;;;0.80;99.90;;;;;;5047984;28;20043;-87
2022/12/03 07:49:53;;;;;;;23.88;12.25;;;0.80;99.90;;;;;;5054931;28;20590;-87
2022/12/03 07:52:20;;;;;;;20.75;10.63;;;0.80;99.90;;;;;;5054211;28;20365;-87
2022/12/03 07:54:46;;;;;;;22.13;11.05;;;0.80;99.90;;;;;;5054077;28;20029;-87
2022/12/03 07:57:12;;;;;;;23.13;11.82;;;0.80;99.90;;;;;;5034424;28;20047;-88
2022/12/03 07:59:38;;;;;;;22.77;11.90;;;0.80;99.90;;;;;;5049644;28;20081;-87
2022/12/03 08:02:03;;;;;;;26.65;12.73;;;0.80;99.90;;;;;;5066808;28;20028;-86
2022/12/03 08:04:29;;;;;;;21.85;10.63;;;0.80;99.90;;;;;;5040664;28;20033;-87
2022/12/03 08:06:55;;;;;;;24.98;12.13;;;0.80;99.90;;;;;;5045669;28;20436;-86
2022/12/03 08:09:21;;;;;;;21.95;11.32;;;0.90;99.90;;;;;;5033888;28;20037;-87
2022/12/03 08:11:48;;;;;;;23.23;11.65;;;0.90;99.90;;;;;;5063892;28;20060;-86
2022/12/03 08:14:16;;;;;;;23.50;11.98;;;0.90;99.90;;;;;;5050349;28;20128;-87
2022/12/03 08:16:44;;;;;;;25.48;12.52;;;0.90;99.90;;;;;;5049956;28;20040;-86
2022/12/03 08:19:11;;;;;;;23.38;12.35;;;0.90;99.90;;;;;;5054264;28;20481;-86
2022/12/03 08:21:38;;;;;;;23.00;12.18;;;0.90;99.90;;;;;;5052806;28;20028;-87
2022/12/03 08:24:17;;;;;;;28.92;13.50;;;0.90;99.90;;;;;;5037137;28;20033;-87
2022/12/03 08:26:43;;;;;;;25.77;12.93;;;0.90;99.90;;;;;;5047876;28;20079;-87
2022/12/03 08:29:12;;;;;;;24.35;11.90;;;0.90;99.90;;;;;;5051445;28;20028;-86
2022/12/03 08:31:39;;;;;;;23.88;12.27;;;1.00;99.90;;;;;;5050583;28;20025;-86
2022/12/03 08:34:22;;;;;;;30.92;15.90;;;1.00;99.90;;;;;;5052148;28;20166;-86
2022/12/03 08:36:54;;;;;;;25.92;14.82;;;1.00;99.90;;;;;;5037719;28;20044;-86
2022/12/03 08:39:32;;;;;;;25.48;13.80;;;1.00;99.90;;;;;;5033822;28;20032;-86
2022/12/03 08:42:41;;;;;;;24.77;12.35;;;1.00;99.90;;;;;;5049930;28;20086;-86
2022/12/03 08:45:26;;;;;;;30.92;15.27;;;1.00;99.90;;;;;;5058248;28;20056;-86
2022/12/03 08:47:56;;;;;;;;;;;1.00;99.90;;;;;;5033711;28;20065;-85
2022/12/03 08:50:41;;;;;;;27.02;13.82;;;1.00;99.90;;;;;;5023809;28;19920;-86
2022/12/03 08:53:13;;;;;;;28.20;13.48;;;1.10;99.90;;;;;;5068665;28;20051;-86
2022/12/03 08:55:47;;;;;;;30.98;16.25;;;1.10;99.90;;;;;;5038303;28;20120;-87
2022/12/03 08:58:25;;;;;;;34.40;16.77;;;1.10;99.90;;;;;;5039085;28;20033;-87
2022/12/03 09:00:59;;;;;;;26.33;13.40;;;1.10;99.90;;;;;;5058422;28;20275;-86
2022/12/03 09:03:28;;;;;;;26.60;14.73;;;1.10;99.90;;;;;;5049609;28;20509;-85
2022/12/03 09:05:54;;;;;;;25.88;13.73;;;1.10;99.90;;;;;;5049852;28;20068;-86
2022/12/03 09:08:20;;;;;;;27.15;12.77;;;1.10;99.90;;;;;;5044397;28;20439;-86
2022/12/03 09:10:46;;;;;;;30.55;15.18;;;1.10;99.90;;;;;;5032468;28;20017;-86
2022/12/03 09:13:11;;;;;;;27.90;13.32;;;1.10;99.90;;;;;;5032769;28;20450;-86
2022/12/03 09:15:37;;;;;;;30.65;14.63;;;1.10;99.90;;;;;;5032945;28;20021;-86
2022/12/03 09:18:03;;;;;;;25.88;12.00;;;1.10;99.90;;;;;;5049531;28;20576;-87
2022/12/03 09:20:29;;;;;;;30.05;13.45;;;1.10;99.90;;;;;;5034059;28;20031;-86
2022/12/03 09:22:55;;;;;;;28.27;13.80;;;1.20;99.90;;;;;;5052681;28;20032;-86
2022/12/03 09:25:20;;;;;;;25.88;13.25;;;1.20;99.90;;;;;;5068742;28;20035;-86
2022/12/03 09:27:46;;;;;;;22.15;11.88;;;1.20;99.90;;;;;;5069434;28;20439;-85
2022/12/03 09:30:12;;;;;;;25.30;12.30;;;1.20;99.90;;;;;;5065795;28;20040;-87
2022/12/03 09:32:38;;;;;;;21.88;11.38;;;1.30;99.90;;;;;;5069078;28;20085;-86
2022/12/03 09:35:05;;;;;;;21.20;10.68;;;1.30;99.90;;;;;;5066139;28;20028;-87
2022/12/03 09:37:30;;;;;;;35.25;15.60;;;1.30;99.90;;;;;;5052369;28;20029;-86
2022/12/03 09:39:56;;;;;;;22.35;12.05;;;1.30;99.90;;;;;;5069297;28;20043;-86
2022/12/03 09:42:23;;;;;;;22.05;11.13;;;1.30;99.90;;;;;;5034501;28;20065;-86
2022/12/03 09:44:49;;;;;;;21.60;11.23;;;1.30;99.90;;;;;;5041638;28;20075;-86
2022/12/03 09:47:15;;;;;;;19.95;10.45;;;1.30;99.90;;;;;;5057290;28;20873;-86
2022/12/03 09:49:41;;;;;;;19.42;10.80;;;1.30;99.90;;;;;;5032703;28;20029;-86
2022/12/03 09:52:10;;;;;;;19.88;10.15;;;1.30;99.90;;;;;;5052694;28;20028;-86
2022/12/03 09:54:37;;;;;;;16.45;9.65;;;1.30;99.90;;;;;;5036326;28;20029;-86
2022/12/03 09:57:06;;;;;;;14.70;9.65;;;1.30;99.90;;;;;;5043739;28;20643;-86
2022/12/03 09:59:33;;;;;;;15.25;9.00;;;1.30;99.90;;;;;;5052351;28;20043;-86
2022/12/03 10:02:00;;;;;;;14.25;8.48;;;1.30;99.90;;;;;;5068511;28;20098;-86
2022/12/03 10:04:27;;;;;;;14.88;8.35;;;1.30;99.90;;;;;;5052537;28;20040;-86
2022/12/03 10:06:55;;;;;;;12.80;7.65;;;1.30;99.90;;;;;;5048625;28;20033;-86
2022/12/03 10:09:27;;;;;;;12.02;7.20;;;1.30;99.90;;;;;;5036730;28;20485;-86
2022/12/03 10:11:56;;;;;;;11.93;6.78;;;1.30;99.90;;;;;;5043821;28;20044;-87
2022/12/03 10:14:22;;;;;;;18.25;10.23;;;1.20;99.90;;;;;;5048981;28;20075;-87
2022/12/03 10:16:55;;;;;;;14.85;9.98;;;1.30;99.90;;;;;;5030626;28;20040;-87
2022/12/03 10:19:28;;;;;;;15.73;9.32;;;1.30;99.90;;;;;;5037610;28;20044;-86
2022/12/03 10:21:54;;;;;;;14.90;8.68;;;1.30;99.90;;;;;;5065656;28;20038;-87
2022/12/03 10:25:02;;;;;;;12.77;8.38;;;1.30;99.90;;;;;;5020673;28;20405;-87
2022/12/03 10:27:30;;;;;;;16.95;10.70;;;1.30;99.90;;;;;;5053245;28;20025;-87
2022/12/03 10:30:02;;;;;;;18.05;9.23;;;1.30;99.90;;;;;;5048904;28;20021;-87
2022/12/03 10:32:39;;;;;;;13.93;8.57;;;1.30;99.90;;;;;;5053096;28;20099;-87
2022/12/03 10:35:14;;;;;;;15.93;10.02;;;1.30;99.90;;;;;;5071466;28;20112;-87
2022/12/03 10:37:59;;;;;;;;;;;1.30;99.90;;;;;;5079154;28;20158;-87
2022/12/03 10:40:36;;;;;;;15.35;8.50;;;1.20;99.90;;;;;;5035860;28;20286;-87
2022/12/03 10:43:17;;;;;;;14.02;9.43;;;1.20;99.90;;;;;;5047338;28;20086;-86
2022/12/03 10:46:03;;;;;;;14.13;8.30;;;1.30;99.90;;;;;;5051315;28;20071;-87
2022/12/03 10:48:29;;;;;;;12.43;7.75;;;1.40;99.90;;;;;;5028716;28;20043;-87
2022/12/03 10:51:03;;;;;;;22.02;10.90;;;1.30;99.90;;;;;;5055043;28;20731;-87
2022/12/03 10:53:34;;;;;;;24.35;14.05;;;1.30;99.90;;;;;;5065564;28;20021;-87
2022/12/03 10:56:04;;;;;;;25.83;14.73;;;1.30;99.90;;;;;;5052285;28;20029;-87
2022/12/03 10:58:34;;;;;;;30.33;24.23;;;1.30;99.90;;;;;;5044700;28;20029;-87
2022/12/03 11:01:04;;;;;;;25.02;19.60;;;1.30;99.90;;;;;;5077942;28;20456;-86
2022/12/03 11:03:35;;;;;;;15.50;9.70;;;1.30;99.90;;;;;;5055411;28;20038;-87
2022/12/03 11:06:02;;;;;;;15.10;8.88;;;1.40;99.90;;;;;;5035596;28;20056;-87
2022/12/03 11:08:35;;;;;;;15.18;9.48;;;1.50;99.90;;;;;;5035871;28;20075;-88
2022/12/03 11:11:04;;;;;;;18.63;12.10;;;1.40;99.90;;;;;;5035504;28;20032;-88
2022/12/03 11:13:36;;;;;;;20.35;13.35;;;1.40;99.90;;;;;;5020208;28;20052;-87
2022/12/03 11:16:05;;;;;;;17.60;8.65;;;1.40;99.90;;;;;;5042248;28;20029;-88
2022/12/03 11:18:36;;;;;;;16.50;8.75;;;1.50;99.90;;;;;;5055743;28;20021;-88
2022/12/03 11:21:12;;;;;;;15.23;8.35;;;1.50;99.90;;;;;;5052677;28;20029;-88
2022/12/03 11:24:02;;;;;;;23.50;12.77;;;1.50;99.90;;;;;;5051559;28;20037;-88
2022/12/03 11:26:28;;;;;;;21.45;12.38;;;1.60;99.90;;;;;;5047039;28;20045;-88
2022/12/03 11:28:55;;;;;;;14.80;9.25;;;1.60;99.90;;;;;;5068489;28;20025;-88
2022/12/03 11:31:46;;;;;;;13.68;8.32;;;1.50;99.90;;;;;;5047122;28;20066;-89
2022/12/03 11:34:20;;;;;;;14.05;8.43;;;1.60;99.90;;;;;;5034987;28;20029;-88
2022/12/03 11:37:08;;;;;;;14.07;8.82;;;1.60;99.90;;;;;;5056193;28;20032;-87
2022/12/03 11:39:49;;;;;;;15.82;9.65;;;1.50;99.90;;;;;;5046973;28;20037;-88
2022/12/03 11:42:24;;;;;;;15.18;8.85;;;1.50;99.90;;;;;;5054793;28;20052;-89
2022/12/03 11:45:07;;;;;;;12.48;8.23;;;1.60;99.90;;;;;;5061708;28;20363;-87
2022/12/03 11:47:42;;;;;;;16.73;8.30;;;1.50;99.90;;;;;;5051295;28;20037;-89
2022/12/03 11:50:32;;;;;;;16.38;9.02;;;1.50;99.90;;;;;;5054065;28;20035;-88
2022/12/03 11:53:27;;;;;;;15.70;7.90;;;1.50;99.90;;;;;;5036008;28;20103;-88
2022/12/03 11:56:09;;;;;;;14.25;9.20;;;1.50;99.90;;;;;;5051349;28;20079;-89
2022/12/03 11:58:38;;;;;;;12.65;8.00;;;1.50;99.90;;;;;;5054691;28;20043;-88
2022/12/03 12:01:06;;;;;;;12.27;7.72;;;1.40;99.90;;;;;;5047301;28;20048;-90
2022/12/03 12:03:35;;;;;;;12.65;7.53;;;1.40;99.90;;;;;;5038215;28;20025;-89
2022/12/03 12:06:11;;;;;;;12.98;7.38;;;1.40;99.90;;;;;;5042169;28;20044;-90
2022/12/03 12:08:40;;;;;;;13.68;8.23;;;1.40;99.90;;;;;;5034949;28;20021;-89
2022/12/03 12:11:30;;;;;;;12.20;7.53;;;1.30;99.90;;;;;;5038500;28;20033;-89
2022/12/03 12:13:58;;;;;;;15.32;8.13;;;1.30;99.90;;;;;;5054488;28;20029;-89
2022/12/03 12:16:50;;;;;;;10.48;6.85;;;1.30;99.90;;;;;;5050554;28;20032;-90
2022/12/03 12:19:31;;;;;;;11.85;7.15;;;1.30;99.90;;;;;;5042856;28;20033;-89
2022/12/03 12:22:26;;;;;;;10.13;6.35;;;1.40;99.90;;;;;;5053554;28;20087;-89
2022/12/03 12:24:53;;;;;;;;;;;1.30;99.90;;;;;;5071367;28;20086;-88
2022/12/03 12:27:30;;;;;;;9.73;6.00;;;1.30;99.90;;;;;;5053772;28;19916;-89
2022/12/03 12:30:02;;;;;;;10.05;6.32;;;1.30;99.90;;;;;;5050822;28;20104;-87
2022/12/03 12:32:32;;;;;;;9.43;6.22;;;1.30;99.90;;;;;;5049619;28;20029;-89
2022/12/03 12:35:15;;;;;;;10.75;6.15;;;1.30;99.90;;;;;;5054181;28;20021;-89
2022/12/03 12:38:12;;;;;;;10.45;6.05;;;1.20;99.90;;;;;;5034355;28;20501;-89
2022/12/03 12:40:40;;;;;;;12.00;6.93;;;1.20;99.90;;;;;;5044481;28;20029;-89
2022/12/03 12:43:25;;;;;;;12.25;7.40;;;1.30;99.90;;;;;;5038863;28;20454;-89
2022/12/03 12:45:59;;;;;;;12.02;6.72;;;1.30;99.90;;;;;;5054131;28;20032;-89
2022/12/03 12:48:30;;;;;;;18.75;9.65;;;1.30;99.90;;;;;;5045664;28;20489;-87
2022/12/03 12:51:19;;;;;;;15.10;9.30;;;1.40;99.90;;;;;;5028787;28;20489;-88
2022/12/03 12:53:48;;;;;;;12.88;7.85;;;1.40;99.90;;;;;;5051524;28;20040;-89
2022/12/03 12:56:24;;;;;;;13.02;8.45;;;1.30;99.90;;;;;;5053508;28;20025;-89
2022/12/03 12:58:51;;;;;;;15.02;8.05;;;1.30;99.90;;;;;;5054197;28;20091;-90
2022/12/03 13:01:31;;;;;;;12.15;7.30;;;1.30;99.90;;;;;;5049745;28;20032;-90
2022/12/03 13:03:58;;;;;;;10.32;7.05;;;1.30;99.90;;;;;;5044779;28;20024;-89